createdAt,value
2023-03-26T00:00:01.785Z,92325.00
2023-03-26T00:01:01.799Z,92329.00
2023-03-26T00:02:01.831Z,92325.00
2023-03-26T00:03:01.911Z,92325.00
2023-03-26T00:04:01.871Z,92329.00
2023-03-26T00:05:01.886Z,92327.00
2023-03-26T00:06:01.926Z,92325.00
2023-03-26T00:07:01.921Z,92325.00
2023-03-26T00:08:01.950Z,92321.00
2023-03-26T00:09:01.960Z,92309.00
2023-03-26T00:10:02.034Z,92309.00
2023-03-26T00:11:02.588Z,92305.00
2023-03-26T00:12:02.031Z,92305.00
2023-03-26T00:13:02.042Z,92303.00
2023-03-26T00:14:02.078Z,92309.00
2023-03-26T00:15:02.106Z,92305.00
2023-03-26T00:16:02.121Z,92307.00
2023-03-26T00:17:03.073Z,92305.00
2023-03-26T00:19:02.186Z,92303.00
2023-03-26T00:20:02.224Z,92305.00
2023-03-26T00:21:02.225Z,92307.00
2023-03-26T00:22:02.254Z,92309.00
2023-03-26T00:23:02.265Z,92309.00
2023-03-26T00:24:02.275Z,92309.00
2023-03-26T00:25:02.310Z,92309.00
2023-03-26T00:26:02.321Z,92309.00
2023-03-26T00:27:02.345Z,92309.00
2023-03-26T00:28:02.374Z,92319.00
2023-03-26T00:29:03.162Z,92319.00
2023-03-26T00:31:02.500Z,92307.00
2023-03-26T00:32:02.456Z,92305.00
2023-03-26T00:33:02.519Z,92303.00
2023-03-26T00:34:02.498Z,92299.00
2023-03-26T00:35:02.542Z,92299.00
2023-03-26T00:36:04.429Z,92303.00
2023-03-26T00:37:02.564Z,92299.00
2023-03-26T00:38:02.574Z,92301.00
2023-03-26T00:39:02.597Z,92298.00
2023-03-26T00:40:02.638Z,92296.00
2023-03-26T00:41:02.720Z,92296.00
2023-03-26T00:43:02.705Z,92299.00
2023-03-26T00:44:03.599Z,92299.00
2023-03-26T00:45:02.742Z,92296.00
2023-03-26T00:46:02.775Z,92298.00
2023-03-26T00:47:02.783Z,92296.00
2023-03-26T00:48:02.898Z,92290.00
2023-03-26T00:49:02.825Z,92290.00
2023-03-26T00:50:02.853Z,92294.00
2023-03-26T00:51:02.986Z,92292.00
2023-03-26T00:52:03.593Z,92286.00
2023-03-26T00:53:02.904Z,92282.00
2023-03-26T00:54:02.928Z,92286.00
2023-03-26T00:55:02.948Z,92284.00
2023-03-26T00:56:02.980Z,92284.00
2023-03-26T00:57:03.028Z,92284.00
2023-03-26T00:58:03.011Z,92288.00
2023-03-26T00:59:03.020Z,92284.00
2023-03-26T01:00:03.596Z,92284.00
2023-03-26T01:01:03.124Z,92286.00
2023-03-26T01:02:03.303Z,92284.00
2023-03-26T01:03:03.204Z,92282.00
2023-03-26T01:04:08.285Z,92278.00
2023-03-26T01:05:04.146Z,92270.00
2023-03-26T01:07:03.608Z,92270.00
2023-03-26T01:08:03.159Z,92280.00
2023-03-26T01:09:03.084Z,92284.00
2023-03-26T01:10:03.079Z,92278.00
2023-03-26T01:11:03.101Z,92274.00
2023-03-26T01:12:03.081Z,92272.00
2023-03-26T01:13:03.071Z,92276.00
2023-03-26T01:15:03.100Z,92274.00
2023-03-26T01:16:03.058Z,92276.00
2023-03-26T01:17:03.024Z,92270.00
2023-03-26T01:18:03.644Z,92270.00
2023-03-26T01:19:03.011Z,92272.00
2023-03-26T01:20:03.522Z,92276.00
2023-03-26T01:21:03.075Z,92278.00
2023-03-26T01:23:03.609Z,92276.00
2023-03-26T01:24:02.983Z,92282.00
2023-03-26T01:25:02.984Z,92276.00
2023-03-26T01:26:03.523Z,92278.00
2023-03-26T01:27:03.026Z,92270.00
2023-03-26T01:28:03.045Z,92268.00
2023-03-26T01:29:03.057Z,92266.00
2023-03-26T01:30:03.089Z,92264.00
2023-03-26T01:31:03.105Z,92262.00
2023-03-26T01:32:03.135Z,92270.00
2023-03-26T01:33:04.180Z,92272.00
2023-03-26T01:34:03.169Z,92272.00
2023-03-26T01:35:03.202Z,92274.00
2023-03-26T01:36:03.240Z,92274.00
2023-03-26T01:37:03.226Z,92274.00
2023-03-26T01:38:03.245Z,92274.00
2023-03-26T01:39:03.283Z,92280.00
2023-03-26T01:40:03.290Z,92276.00
2023-03-26T01:41:03.308Z,92276.00
2023-03-26T01:42:03.448Z,92274.00
2023-03-26T01:43:03.413Z,92270.00
2023-03-26T01:44:03.422Z,92270.00
2023-03-26T01:45:03.494Z,92266.00
2023-03-26T01:46:03.481Z,92266.00
2023-03-26T01:47:03.470Z,92266.00
2023-03-26T01:48:03.540Z,92268.00
2023-03-26T01:49:03.468Z,92266.00
2023-03-26T01:50:03.495Z,92268.00
2023-03-26T01:51:03.508Z,92268.00
2023-03-26T01:52:03.529Z,92266.00
2023-03-26T01:53:03.558Z,92264.00
2023-03-26T01:54:03.576Z,92268.00
2023-03-26T01:55:03.600Z,92268.00
2023-03-26T01:56:03.623Z,92272.00
2023-03-26T01:57:03.697Z,92272.00
2023-03-26T01:58:03.660Z,92274.00
2023-03-26T01:59:03.670Z,92276.00
2023-03-26T02:00:03.692Z,92276.00
2023-03-26T02:01:03.728Z,92270.00
2023-03-26T02:02:03.807Z,92270.00
2023-03-26T02:03:03.864Z,92268.00
2023-03-26T02:04:03.832Z,92266.00
2023-03-26T02:05:03.826Z,92266.00
2023-03-26T02:06:03.828Z,92262.00
2023-03-26T02:07:03.869Z,92266.00
2023-03-26T02:08:03.865Z,92266.00
2023-03-26T02:09:03.886Z,92260.00
2023-03-26T02:10:03.904Z,92258.00
2023-03-26T02:11:03.931Z,92256.00
2023-03-26T02:12:03.943Z,92260.00
2023-03-26T02:13:03.969Z,92260.00
2023-03-26T02:14:03.980Z,92258.00
2023-03-26T02:15:04.000Z,92256.00
2023-03-26T02:16:04.060Z,92252.00
2023-03-26T02:17:04.054Z,92250.00
2023-03-26T02:18:04.175Z,92245.00
2023-03-26T02:19:04.097Z,92252.00
2023-03-26T02:20:04.118Z,92250.00
2023-03-26T02:21:04.131Z,92252.00
2023-03-26T02:22:04.156Z,92254.00
2023-03-26T02:23:04.199Z,92248.00
2023-03-26T02:24:04.394Z,92250.00
2023-03-26T02:25:04.274Z,92248.00
2023-03-26T02:26:04.238Z,92248.00
2023-03-26T02:27:04.260Z,92245.00
2023-03-26T02:28:04.272Z,92243.00
2023-03-26T02:29:04.294Z,92239.00
2023-03-26T02:30:04.317Z,92241.00
2023-03-26T02:31:04.341Z,92233.00
2023-03-26T02:32:04.413Z,92229.00
2023-03-26T02:33:04.421Z,92235.00
2023-03-26T02:34:04.424Z,92237.00
2023-03-26T02:35:04.408Z,92239.00
2023-03-26T02:36:04.495Z,92241.00
2023-03-26T02:37:04.451Z,92239.00
2023-03-26T02:38:04.477Z,92241.00
2023-03-26T02:39:04.536Z,92239.00
2023-03-26T02:40:04.514Z,92233.00
2023-03-26T02:41:04.526Z,92233.00
2023-03-26T02:42:04.546Z,92229.00
2023-03-26T02:43:04.574Z,92229.00
2023-03-26T02:44:04.587Z,92229.00
2023-03-26T02:45:04.608Z,92233.00
2023-03-26T02:46:04.654Z,92239.00
2023-03-26T02:47:05.633Z,92237.00
2023-03-26T02:48:04.707Z,92237.00
2023-03-26T02:49:04.691Z,92233.00
2023-03-26T02:50:04.701Z,92231.00
2023-03-26T02:51:04.731Z,92229.00
2023-03-26T02:52:04.751Z,92233.00
2023-03-26T02:53:04.786Z,92235.00
2023-03-26T02:54:04.793Z,92235.00
2023-03-26T02:55:04.883Z,92229.00
2023-03-26T02:56:04.826Z,92227.00
2023-03-26T02:57:04.895Z,92223.00
2023-03-26T02:58:04.873Z,92215.00
2023-03-26T02:59:04.899Z,92213.00
2023-03-26T03:00:04.936Z,92209.00
2023-03-26T03:01:04.979Z,92201.00
2023-03-26T03:02:04.950Z,92200.00
2023-03-26T03:03:05.039Z,92186.00
2023-03-26T03:04:04.981Z,92180.00
2023-03-26T03:05:05.101Z,92172.00
2023-03-26T03:07:05.062Z,92166.00
2023-03-26T03:08:05.080Z,92176.00
2023-03-26T03:09:05.102Z,92178.00
2023-03-26T03:10:05.114Z,92180.00
2023-03-26T03:11:05.123Z,92186.00
2023-03-26T03:12:05.148Z,92188.00
2023-03-26T03:13:05.186Z,92180.00
2023-03-26T03:14:05.197Z,92174.00
2023-03-26T03:15:05.231Z,92178.00
2023-03-26T03:16:05.240Z,92166.00
2023-03-26T03:17:05.285Z,92174.00
2023-03-26T03:18:05.367Z,92182.00
2023-03-26T03:19:05.303Z,92176.00
2023-03-26T03:20:05.337Z,92170.00
2023-03-26T03:21:05.403Z,92170.00
2023-03-26T03:23:05.406Z,92164.00
2023-03-26T03:24:05.411Z,92162.00
2023-03-26T03:25:05.424Z,92166.00
2023-03-26T03:26:05.446Z,92162.00
2023-03-26T03:27:05.467Z,92158.00
2023-03-26T03:28:05.490Z,92154.00
2023-03-26T03:29:05.542Z,92154.00
2023-03-26T03:31:05.678Z,92150.00
2023-03-26T03:32:05.576Z,92146.00
2023-03-26T03:33:05.661Z,92146.00
2023-03-26T03:35:05.640Z,92143.00
2023-03-26T03:36:05.696Z,92141.00
2023-03-26T03:37:05.674Z,92139.00
2023-03-26T03:38:05.691Z,92137.00
2023-03-26T03:39:05.713Z,92133.00
2023-03-26T03:40:06.727Z,92146.00
2023-03-26T03:41:05.786Z,92137.00
2023-03-26T03:43:05.798Z,92133.00
2023-03-26T03:44:05.835Z,92137.00
2023-03-26T03:45:05.860Z,92135.00
2023-03-26T03:46:05.865Z,92133.00
2023-03-26T03:47:05.878Z,92129.00
2023-03-26T03:48:05.932Z,92129.00
2023-03-26T03:49:06.002Z,92123.00
2023-03-26T03:51:05.963Z,92129.00
2023-03-26T03:52:05.981Z,92133.00
2023-03-26T03:53:06.000Z,92135.00
2023-03-26T03:54:06.030Z,92137.00
2023-03-26T03:55:06.049Z,92135.00
2023-03-26T03:56:06.054Z,92137.00
2023-03-26T03:57:06.121Z,92141.00
2023-03-26T03:58:06.096Z,92135.00
2023-03-26T03:59:06.134Z,92131.00
2023-03-26T04:00:06.979Z,92127.00
2023-03-26T04:01:06.170Z,92127.00
2023-03-26T04:02:06.208Z,92121.00
2023-03-26T04:03:06.341Z,92117.00
2023-03-26T04:04:06.372Z,92119.00
2023-03-26T04:05:06.230Z,92119.00
2023-03-26T04:06:06.254Z,92115.00
2023-03-26T04:07:06.280Z,92115.00
2023-03-26T04:08:06.299Z,92115.00
2023-03-26T04:09:06.306Z,92111.00
2023-03-26T04:10:06.330Z,92109.00
2023-03-26T04:11:06.353Z,92107.00
2023-03-26T04:12:06.374Z,92101.00
2023-03-26T04:13:06.494Z,92101.00
2023-03-26T04:15:06.441Z,92090.00
2023-03-26T04:16:06.469Z,92094.00
2023-03-26T04:17:06.463Z,92096.00
2023-03-26T04:18:06.545Z,92092.00
2023-03-26T04:19:06.508Z,92084.00
2023-03-26T04:20:06.540Z,92084.00
2023-03-26T04:21:06.616Z,92084.00
2023-03-26T04:23:06.587Z,92072.00
2023-03-26T04:24:06.681Z,92070.00
2023-03-26T04:25:06.627Z,92074.00
2023-03-26T04:26:06.714Z,92072.00
2023-03-26T04:27:06.676Z,92068.00
2023-03-26T04:28:06.792Z,92066.00
2023-03-26T04:29:06.704Z,92053.00
2023-03-26T04:30:06.723Z,92049.00
2023-03-26T04:31:06.772Z,92049.00
2023-03-26T04:32:06.808Z,92047.00
2023-03-26T04:33:06.813Z,92049.00
2023-03-26T04:34:06.801Z,92047.00
2023-03-26T04:35:06.827Z,92049.00
2023-03-26T04:36:06.909Z,92049.00
2023-03-26T04:37:06.855Z,92051.00
2023-03-26T04:38:06.873Z,92045.00
2023-03-26T04:39:06.940Z,92043.00
2023-03-26T04:40:06.930Z,92047.00
2023-03-26T04:41:06.943Z,92049.00
2023-03-26T04:42:07.023Z,92047.00
2023-03-26T04:43:07.009Z,92049.00
2023-03-26T04:44:07.080Z,92047.00
2023-03-26T04:45:07.029Z,92041.00
2023-03-26T04:46:07.047Z,92047.00
2023-03-26T04:47:07.078Z,92051.00
2023-03-26T04:48:07.130Z,92045.00
2023-03-26T04:49:07.121Z,92049.00
2023-03-26T04:50:07.131Z,92049.00
2023-03-26T04:51:07.159Z,92045.00
2023-03-26T04:52:07.165Z,92043.00
2023-03-26T04:53:07.182Z,92043.00
2023-03-26T04:54:07.210Z,92043.00
2023-03-26T04:55:07.279Z,92047.00
2023-03-26T04:56:07.251Z,92045.00
2023-03-26T04:57:07.304Z,92047.00
2023-03-26T04:58:07.285Z,92049.00
2023-03-26T04:59:07.294Z,92047.00
2023-03-26T05:00:07.317Z,92047.00
2023-03-26T05:01:10.253Z,92045.00
2023-03-26T05:03:07.395Z,92043.00
2023-03-26T05:04:07.348Z,92043.00
2023-03-26T05:05:07.315Z,92051.00
2023-03-26T05:07:07.290Z,92049.00
2023-03-26T05:08:07.288Z,92045.00
2023-03-26T05:09:07.276Z,92049.00
2023-03-26T05:10:07.276Z,92045.00
2023-03-26T05:11:07.268Z,92053.00
2023-03-26T05:12:07.320Z,92051.00
2023-03-26T05:13:07.254Z,92047.00
2023-03-26T05:15:07.247Z,92049.00
2023-03-26T05:16:07.278Z,92051.00
2023-03-26T05:17:07.222Z,92051.00
2023-03-26T05:19:07.300Z,92051.00
2023-03-26T05:20:07.202Z,92047.00
2023-03-26T05:21:07.208Z,92049.00
2023-03-26T05:23:07.171Z,92045.00
2023-03-26T05:24:07.165Z,92047.00
2023-03-26T05:25:07.159Z,92045.00
2023-03-26T05:27:07.209Z,92039.00
2023-03-26T05:28:07.133Z,92037.00
2023-03-26T05:29:07.130Z,92039.00
2023-03-26T05:30:07.181Z,92033.00
2023-03-26T05:31:07.139Z,92035.00
2023-03-26T05:32:07.112Z,92035.00
2023-03-26T05:33:07.180Z,92031.00
2023-03-26T05:35:07.092Z,92031.00
2023-03-26T05:36:07.085Z,92031.00
2023-03-26T05:37:07.080Z,92027.00
2023-03-26T05:38:07.078Z,92021.00
2023-03-26T05:39:07.067Z,92023.00
2023-03-26T05:40:07.056Z,92019.00
2023-03-26T05:41:07.046Z,92021.00
2023-03-26T05:43:07.034Z,92017.00
2023-03-26T05:44:07.019Z,92014.00
2023-03-26T05:45:07.020Z,92010.00
2023-03-26T05:46:07.026Z,92008.00
2023-03-26T05:47:07.073Z,92010.00
2023-03-26T05:48:07.038Z,92012.00
2023-03-26T05:49:07.001Z,92012.00
2023-03-26T05:51:06.984Z,92006.00
2023-03-26T05:52:06.968Z,92002.00
2023-03-26T05:53:06.962Z,92004.00
2023-03-26T05:54:06.951Z,92002.00
2023-03-26T05:55:06.946Z,91998.00
2023-03-26T05:56:06.934Z,91998.00
2023-03-26T05:57:06.976Z,91996.00
2023-03-26T05:58:06.927Z,91998.00
2023-03-26T05:59:06.922Z,91996.00
2023-03-26T06:00:06.915Z,91996.00
2023-03-26T06:01:06.905Z,91996.00
2023-03-26T06:02:06.893Z,91998.00
2023-03-26T06:03:06.989Z,91998.00
2023-03-26T06:04:06.940Z,92006.00
2023-03-26T06:05:06.869Z,92000.00
2023-03-26T06:06:06.859Z,91992.00
2023-03-26T06:07:06.857Z,91994.00
2023-03-26T06:08:06.844Z,91992.00
2023-03-26T06:09:06.848Z,91994.00
2023-03-26T06:10:06.830Z,91998.00
2023-03-26T06:11:06.850Z,92000.00
2023-03-26T06:12:06.821Z,91996.00
2023-03-26T06:13:06.827Z,91996.00
2023-03-26T06:14:06.810Z,91992.00
2023-03-26T06:15:06.798Z,91990.00
2023-03-26T06:16:06.878Z,91996.00
2023-03-26T06:17:06.838Z,91994.00
2023-03-26T06:18:06.882Z,91994.00
2023-03-26T06:19:06.936Z,91990.00
2023-03-26T06:20:09.155Z,91988.00
2023-03-26T06:21:06.992Z,91982.00
2023-03-26T06:22:07.028Z,91984.00
2023-03-26T06:23:07.038Z,91984.00
2023-03-26T06:24:07.059Z,91984.00
2023-03-26T06:25:07.081Z,91980.00
2023-03-26T06:26:07.106Z,91974.00
2023-03-26T06:27:07.131Z,91962.00
2023-03-26T06:28:07.165Z,91957.00
2023-03-26T06:29:07.176Z,91955.00
2023-03-26T06:30:07.263Z,91951.00
2023-03-26T06:31:07.240Z,91943.00
2023-03-26T06:32:19.050Z,91947.00
2023-03-26T06:33:08.254Z,91945.00
2023-03-26T06:34:07.249Z,91945.00
2023-03-26T06:35:07.228Z,91939.00
2023-03-26T06:36:07.351Z,91933.00
2023-03-26T06:37:07.229Z,91925.00
2023-03-26T06:38:07.226Z,91921.00
2023-03-26T06:39:07.667Z,91921.00
2023-03-26T06:40:07.209Z,91912.00
2023-03-26T06:41:07.197Z,91912.00
2023-03-26T06:42:07.172Z,91910.00
2023-03-26T06:43:10.665Z,91910.00
2023-03-26T06:44:07.240Z,91910.00
2023-03-26T06:45:07.171Z,91912.00
2023-03-26T06:46:07.202Z,91910.00
2023-03-26T06:47:07.142Z,91910.00
2023-03-26T06:48:07.211Z,91908.00
2023-03-26T06:49:07.141Z,91910.00
2023-03-26T06:50:07.109Z,91912.00
2023-03-26T06:51:07.116Z,91913.00
2023-03-26T06:52:07.114Z,91917.00
2023-03-26T06:53:07.100Z,91917.00
2023-03-26T06:54:07.163Z,91921.00
2023-03-26T06:55:07.091Z,91917.00
2023-03-26T06:56:08.898Z,91913.00
2023-03-26T06:57:07.106Z,91915.00
2023-03-26T06:58:07.071Z,91915.00
2023-03-26T06:59:07.068Z,91912.00
2023-03-26T07:00:07.049Z,91913.00
2023-03-26T07:01:07.095Z,91912.00
2023-03-26T07:02:07.741Z,91912.00
2023-03-26T07:03:07.245Z,91912.00
2023-03-26T07:04:07.062Z,91912.00
2023-03-26T07:05:07.039Z,91912.00
2023-03-26T07:06:07.010Z,91912.00
2023-03-26T07:07:07.014Z,91910.00
2023-03-26T07:08:07.002Z,91906.00
2023-03-26T07:09:07.011Z,91904.00
2023-03-26T07:10:07.071Z,91904.00
2023-03-26T07:11:06.994Z,91902.00
2023-03-26T07:12:06.979Z,91898.00
2023-03-26T07:13:06.976Z,91894.00
2023-03-26T07:14:06.987Z,91894.00
2023-03-26T07:15:06.953Z,91894.00
2023-03-26T07:16:06.962Z,91892.00
2023-03-26T07:17:07.740Z,91892.00
2023-03-26T07:18:06.973Z,91890.00
2023-03-26T07:19:07.252Z,91890.00
2023-03-26T07:20:06.942Z,91892.00
2023-03-26T07:21:06.931Z,91890.00
2023-03-26T07:22:06.936Z,91884.00
2023-03-26T07:23:07.081Z,91882.00
2023-03-26T07:24:06.981Z,91872.00
2023-03-26T07:25:06.964Z,91868.00
2023-03-26T07:26:07.966Z,91857.00
2023-03-26T07:27:06.959Z,91851.00
2023-03-26T07:28:06.942Z,91843.00
2023-03-26T07:29:06.948Z,91841.00
2023-03-26T07:30:06.932Z,91841.00
2023-03-26T07:31:06.921Z,91841.00
2023-03-26T07:32:06.945Z,91843.00
2023-03-26T07:33:06.985Z,91847.00
2023-03-26T07:34:06.912Z,91841.00
2023-03-26T07:35:06.908Z,91835.00
2023-03-26T07:36:06.888Z,91827.00
2023-03-26T07:37:06.969Z,91819.00
2023-03-26T07:38:06.871Z,91809.00
2023-03-26T07:39:06.949Z,91805.00
2023-03-26T07:40:06.855Z,91794.00
2023-03-26T07:41:06.854Z,91794.00
2023-03-26T07:42:06.839Z,91794.00
2023-03-26T07:43:06.860Z,91803.00
2023-03-26T07:44:06.825Z,91803.00
2023-03-26T07:45:06.821Z,91796.00
2023-03-26T07:46:06.919Z,91792.00
2023-03-26T07:47:06.907Z,91790.00
2023-03-26T07:48:06.967Z,91792.00
2023-03-26T07:49:07.750Z,91794.00
2023-03-26T07:50:07.061Z,91803.00
2023-03-26T07:51:07.119Z,91803.00
2023-03-26T07:52:07.146Z,91794.00
2023-03-26T07:53:07.201Z,91790.00
2023-03-26T07:54:07.226Z,91786.00
2023-03-26T07:55:07.272Z,91788.00
2023-03-26T07:56:07.325Z,91788.00
2023-03-26T07:57:07.437Z,91790.00
2023-03-26T07:58:07.358Z,91792.00
2023-03-26T07:59:07.432Z,91792.00
2023-03-26T08:00:07.407Z,91792.00
2023-03-26T08:01:07.410Z,91790.00
2023-03-26T08:02:07.436Z,91788.00
2023-03-26T08:03:07.550Z,91788.00
2023-03-26T08:04:23.586Z,91788.00
2023-03-26T08:05:08.523Z,91788.00
2023-03-26T08:06:07.465Z,91788.00
2023-03-26T08:07:07.456Z,91782.00
2023-03-26T08:08:07.451Z,91780.00
2023-03-26T08:09:07.440Z,91774.00
2023-03-26T08:10:07.505Z,91776.00
2023-03-26T08:11:07.437Z,91773.00
2023-03-26T08:12:07.422Z,91774.00
2023-03-26T08:13:07.412Z,91774.00
2023-03-26T08:14:07.398Z,91774.00
2023-03-26T08:15:07.397Z,91774.00
2023-03-26T08:16:07.432Z,91774.00
2023-03-26T08:17:07.394Z,91771.00
2023-03-26T08:18:07.441Z,91769.00
2023-03-26T08:19:07.389Z,91767.00
2023-03-26T08:20:07.394Z,91763.00
2023-03-26T08:21:07.366Z,91763.00
2023-03-26T08:22:07.369Z,91761.00
2023-03-26T08:23:07.351Z,91763.00
2023-03-26T08:24:07.346Z,91761.00
2023-03-26T08:25:07.342Z,91761.00
2023-03-26T08:26:07.327Z,91761.00
2023-03-26T08:27:07.321Z,91757.00
2023-03-26T08:28:07.328Z,91763.00
2023-03-26T08:29:07.315Z,91761.00
2023-03-26T08:30:07.307Z,91763.00
2023-03-26T08:31:07.416Z,91763.00
2023-03-26T08:32:07.360Z,91759.00
2023-03-26T08:33:07.429Z,91763.00
2023-03-26T08:34:07.435Z,91763.00
2023-03-26T08:35:07.475Z,91757.00
2023-03-26T08:36:07.511Z,91761.00
2023-03-26T08:37:07.565Z,91763.00
2023-03-26T08:38:08.941Z,91761.00
2023-03-26T08:39:07.640Z,91761.00
2023-03-26T08:40:07.692Z,91761.00
2023-03-26T08:41:07.737Z,91763.00
2023-03-26T08:42:07.784Z,91759.00
2023-03-26T08:43:07.824Z,91759.00
2023-03-26T08:44:07.875Z,91765.00
2023-03-26T08:45:07.976Z,91771.00
2023-03-26T08:46:08.005Z,91771.00
2023-03-26T08:47:08.032Z,91776.00
2023-03-26T08:48:08.148Z,91774.00
2023-03-26T08:49:08.141Z,91774.00
2023-03-26T08:50:08.182Z,91769.00
2023-03-26T08:51:08.252Z,91769.00
2023-03-26T08:52:08.795Z,91771.00
2023-03-26T08:53:08.354Z,91767.00
2023-03-26T08:54:08.410Z,91767.00
2023-03-26T08:55:08.478Z,91765.00
2023-03-26T08:56:08.541Z,91763.00
2023-03-26T08:57:08.652Z,91761.00
2023-03-26T08:58:08.643Z,91761.00
2023-03-26T08:59:08.691Z,91759.00
2023-03-26T09:00:08.747Z,91753.00
2023-03-26T09:01:08.792Z,91747.00
2023-03-26T09:02:08.941Z,91745.00
2023-03-26T09:03:09.008Z,91747.00
2023-03-26T09:04:08.982Z,91751.00
2023-03-26T09:05:08.987Z,91753.00
2023-03-26T09:06:09.038Z,91751.00
2023-03-26T09:07:09.079Z,91749.00
2023-03-26T09:08:09.124Z,91751.00
2023-03-26T09:09:09.172Z,91749.00
2023-03-26T09:10:10.226Z,91749.00
2023-03-26T09:11:09.167Z,91741.00
2023-03-26T09:12:09.155Z,91735.00
2023-03-26T09:13:09.152Z,91727.00
2023-03-26T09:14:09.135Z,91722.00
2023-03-26T09:15:09.215Z,91720.00
2023-03-26T09:16:09.154Z,91718.00
2023-03-26T09:17:09.131Z,91714.00
2023-03-26T09:18:09.161Z,91712.00
2023-03-26T09:19:09.097Z,91710.00
2023-03-26T09:20:09.092Z,91712.00
2023-03-26T09:21:09.080Z,91708.00
2023-03-26T09:22:09.072Z,91704.00
2023-03-26T09:23:09.066Z,91698.00
2023-03-26T09:24:09.089Z,91694.00
2023-03-26T09:25:09.074Z,91692.00
2023-03-26T09:26:09.087Z,91690.00
2023-03-26T09:27:09.120Z,91686.00
2023-03-26T09:28:09.138Z,91684.00
2023-03-26T09:29:09.182Z,91680.00
2023-03-26T09:30:09.198Z,91676.00
2023-03-26T09:31:09.231Z,91674.00
2023-03-26T09:32:09.255Z,91674.00
2023-03-26T09:33:09.278Z,91672.00
2023-03-26T09:34:09.304Z,91672.00
2023-03-26T09:35:10.716Z,91674.00
2023-03-26T09:36:09.484Z,91672.00
2023-03-26T09:37:09.458Z,91671.00
2023-03-26T09:38:09.485Z,91667.00
2023-03-26T09:39:09.526Z,91669.00
2023-03-26T09:40:09.557Z,91669.00
2023-03-26T09:41:09.595Z,91669.00
2023-03-26T09:42:09.629Z,91669.00
2023-03-26T09:43:09.657Z,91669.00
2023-03-26T09:44:09.699Z,91671.00
2023-03-26T09:45:09.752Z,91671.00
2023-03-26T09:46:09.801Z,91667.00
2023-03-26T09:47:09.812Z,91663.00
2023-03-26T09:48:09.854Z,91663.00
2023-03-26T09:49:09.897Z,91663.00
2023-03-26T09:50:10.017Z,91661.00
2023-03-26T09:51:09.994Z,91659.00
2023-03-26T09:52:10.040Z,91655.00
2023-03-26T09:53:10.147Z,91655.00
2023-03-26T09:54:10.143Z,91655.00
2023-03-26T09:55:10.197Z,91655.00
2023-03-26T09:56:10.241Z,91659.00
2023-03-26T09:57:10.293Z,91657.00
2023-03-26T09:58:10.384Z,91659.00
2023-03-26T09:59:10.584Z,91661.00
2023-03-26T10:00:10.459Z,91661.00
2023-03-26T10:01:10.566Z,91663.00
2023-03-26T10:02:10.566Z,91663.00
2023-03-26T10:03:10.695Z,91661.00
2023-03-26T10:04:10.672Z,91661.00
2023-03-26T10:05:10.856Z,91661.00
2023-03-26T10:06:10.795Z,91663.00
2023-03-26T10:07:10.853Z,91659.00
2023-03-26T10:08:10.914Z,91663.00
2023-03-26T10:09:10.962Z,91663.00
2023-03-26T10:10:11.045Z,91661.00
2023-03-26T10:11:11.091Z,91661.00
2023-03-26T10:12:11.135Z,91663.00
2023-03-26T10:13:14.985Z,91667.00
2023-03-26T10:14:11.177Z,91671.00
2023-03-26T10:15:11.180Z,91667.00
2023-03-26T10:16:11.241Z,91665.00
2023-03-26T10:17:11.216Z,91665.00
2023-03-26T10:18:27.005Z,91665.00
2023-03-26T10:19:12.148Z,91665.00
2023-03-26T10:20:11.170Z,91665.00
2023-03-26T10:21:11.135Z,91669.00
2023-03-26T10:22:11.124Z,91669.00
2023-03-26T10:23:11.127Z,91671.00
2023-03-26T10:24:11.117Z,91671.00
2023-03-26T10:25:11.113Z,91672.00
2023-03-26T10:26:11.105Z,91671.00
2023-03-26T10:27:11.161Z,91671.00
2023-03-26T10:28:11.110Z,91671.00
2023-03-26T10:29:11.174Z,91669.00
2023-03-26T10:30:11.202Z,91667.00
2023-03-26T10:31:11.358Z,91665.00
2023-03-26T10:32:11.322Z,91665.00
2023-03-26T10:33:11.392Z,91669.00
2023-03-26T10:34:28.367Z,91671.00
2023-03-26T10:35:12.417Z,91672.00
2023-03-26T10:36:11.429Z,91674.00
2023-03-26T10:37:11.409Z,91678.00
2023-03-26T10:38:11.395Z,91680.00
2023-03-26T10:39:11.397Z,91678.00
2023-03-26T10:40:12.378Z,91674.00
2023-03-26T10:41:11.374Z,91672.00
2023-03-26T10:42:11.359Z,91674.00
2023-03-26T10:43:12.471Z,91672.00
2023-03-26T10:44:11.355Z,91674.00
2023-03-26T10:45:11.350Z,91676.00
2023-03-26T10:46:11.389Z,91674.00
2023-03-26T10:47:11.336Z,91678.00
2023-03-26T10:48:11.313Z,91684.00
2023-03-26T10:49:11.323Z,91686.00
2023-03-26T10:50:11.309Z,91688.00
2023-03-26T10:51:11.301Z,91686.00
2023-03-26T10:52:11.348Z,91688.00
2023-03-26T10:53:11.392Z,91684.00
2023-03-26T10:54:11.429Z,91676.00
2023-03-26T10:55:11.457Z,91678.00
2023-03-26T10:56:11.502Z,91678.00
2023-03-26T10:57:11.599Z,91680.00
2023-03-26T10:58:11.609Z,91678.00
2023-03-26T10:59:11.670Z,91676.00
2023-03-26T11:00:11.691Z,91678.00
2023-03-26T11:01:11.775Z,91678.00
2023-03-26T11:02:11.810Z,91674.00
2023-03-26T11:03:11.913Z,91676.00
2023-03-26T11:04:11.906Z,91671.00
2023-03-26T11:05:11.957Z,91676.00
2023-03-26T11:06:12.005Z,91678.00
2023-03-26T11:07:12.904Z,91674.00
2023-03-26T11:08:12.117Z,91676.00
2023-03-26T11:09:12.174Z,91682.00
2023-03-26T11:10:12.211Z,91682.00
2023-03-26T11:11:12.269Z,91688.00
2023-03-26T11:12:26.288Z,91676.00
2023-03-26T11:13:13.317Z,91680.00
2023-03-26T11:14:15.147Z,91674.00
2023-03-26T11:15:13.310Z,91678.00
2023-03-26T11:16:12.369Z,91674.00
2023-03-26T11:17:14.970Z,91671.00
2023-03-26T11:18:13.365Z,91674.00
2023-03-26T11:19:12.290Z,91672.00
2023-03-26T11:20:12.275Z,91674.00
2023-03-26T11:21:18.945Z,91674.00
2023-03-26T11:22:13.259Z,91672.00
2023-03-26T11:23:12.259Z,91672.00
2023-03-26T11:24:12.248Z,91665.00
2023-03-26T11:25:12.253Z,91669.00
2023-03-26T11:26:12.245Z,91674.00
2023-03-26T11:27:16.054Z,91676.00
2023-03-26T11:28:12.922Z,91674.00
2023-03-26T11:29:31.508Z,91678.00
2023-03-26T11:30:13.292Z,91676.00
2023-03-26T11:31:12.220Z,91676.00
2023-03-26T11:32:12.221Z,91680.00
2023-03-26T11:33:12.184Z,91680.00
2023-03-26T11:34:12.178Z,91678.00
2023-03-26T11:35:12.213Z,91680.00
2023-03-26T11:36:12.209Z,91678.00
2023-03-26T11:37:12.160Z,91686.00
2023-03-26T11:38:12.153Z,91686.00
2023-03-26T11:39:12.177Z,91686.00
2023-03-26T11:40:12.237Z,91676.00
2023-03-26T11:41:12.288Z,91678.00
2023-03-26T11:42:12.352Z,91674.00
2023-03-26T11:43:12.385Z,91669.00
2023-03-26T11:44:12.471Z,91669.00
2023-03-26T11:45:12.461Z,91672.00
2023-03-26T11:46:12.529Z,91672.00
2023-03-26T11:47:12.542Z,91667.00
2023-03-26T11:48:12.552Z,91667.00
2023-03-26T11:49:12.602Z,91674.00
2023-03-26T11:50:12.673Z,91676.00
2023-03-26T11:51:12.673Z,91674.00
2023-03-26T11:52:12.687Z,91680.00
2023-03-26T11:53:12.770Z,91678.00
2023-03-26T11:54:12.701Z,91678.00
2023-03-26T11:55:12.725Z,91678.00
2023-03-26T11:56:12.748Z,91678.00
2023-03-26T11:57:13.396Z,91676.00
2023-03-26T11:58:12.765Z,91674.00
2023-03-26T11:59:12.776Z,91676.00
2023-03-26T12:00:12.788Z,91680.00
2023-03-26T12:01:12.790Z,91684.00
2023-03-26T12:02:12.823Z,91678.00
2023-03-26T12:04:12.827Z,91674.00
2023-03-26T12:05:12.806Z,91674.00
2023-03-26T12:06:12.816Z,91672.00
2023-03-26T12:07:12.816Z,91671.00
2023-03-26T12:08:12.813Z,91674.00